sensor_id;sensor_type;location;lat;lon;timestamp;P1;durP1;ratioP1;P2;durP2;ratioP2
77775;SDS011;66965;43.328;6.668;2023-05-28T00:01:09;13.90;;;7.70;;
77775;SDS011;66965;43.328;6.668;2023-05-28T00:03:34;12.40;;;8.40;;
77775;SDS011;66965;43.328;6.668;2023-05-28T00:08:25;17.67;;;8.07;;
77775;SDS011;66965;43.328;6.668;2023-05-28T00:10:51;14.03;;;8.20;;
77775;SDS011;66965;43.328;6.668;2023-05-28T00:13:17;12.60;;;7.93;;
77775;SDS011;66965;43.328;6.668;2023-05-28T00:15:43;14.68;;;8.85;;
77775;SDS011;66965;43.328;6.668;2023-05-28T00:18:09;14.18;;;8.60;;
77775;SDS011;66965;43.328;6.668;2023-05-28T00:20:37;14.25;;;8.85;;
77775;SDS011;66965;43.328;6.668;2023-05-28T00:23:02;12.85;;;8.75;;
77775;SDS011;66965;43.328;6.668;2023-05-28T00:25:27;14.68;;;8.73;;
77775;SDS011;66965;43.328;6.668;2023-05-28T00:27:53;14.67;;;8.17;;
77775;SDS011;66965;43.328;6.668;2023-05-28T00:30:18;11.50;;;8.87;;
77775;SDS011;66965;43.328;6.668;2023-05-28T00:32:43;11.63;;;8.37;;
77775;SDS011;66965;43.328;6.668;2023-05-28T00:35:09;12.73;;;9.27;;
77775;SDS011;66965;43.328;6.668;2023-05-28T00:37:34;12.43;;;8.80;;
77775;SDS011;66965;43.328;6.668;2023-05-28T00:40:00;13.55;;;7.82;;
77775;SDS011;66965;43.328;6.668;2023-05-28T00:42:25;11.30;;;8.23;;
77775;SDS011;66965;43.328;6.668;2023-05-28T00:44:51;13.75;;;8.93;;
77775;SDS011;66965;43.328;6.668;2023-05-28T00:47:17;12.82;;;9.38;;
77775;SDS011;66965;43.328;6.668;2023-05-28T00:49:42;12.98;;;8.48;;
77775;SDS011;66965;43.328;6.668;2023-05-28T00:52:07;17.03;;;9.63;;
77775;SDS011;66965;43.328;6.668;2023-05-28T00:56:59;13.40;;;8.23;;
77775;SDS011;66965;43.328;6.668;2023-05-28T00:59:25;11.90;;;7.47;;
77775;SDS011;66965;43.328;6.668;2023-05-28T01:01:50;10.43;;;8.20;;
77775;SDS011;66965;43.328;6.668;2023-05-28T01:04:16;11.88;;;8.40;;
77775;SDS011;66965;43.328;6.668;2023-05-28T01:06:41;17.25;;;8.38;;
77775;SDS011;66965;43.328;6.668;2023-05-28T01:09:08;12.07;;;7.45;;
77775;SDS011;66965;43.328;6.668;2023-05-28T01:11:34;9.95;;;8.20;;
77775;SDS011;66965;43.328;6.668;2023-05-28T01:16:25;12.90;;;7.90;;
77775;SDS011;66965;43.328;6.668;2023-05-28T01:18:53;15.30;;;8.15;;
77775;SDS011;66965;43.328;6.668;2023-05-28T01:21:20;10.82;;;7.47;;
77775;SDS011;66965;43.328;6.668;2023-05-28T01:23:47;13.00;;;7.63;;
77775;SDS011;66965;43.328;6.668;2023-05-28T01:26:15;10.02;;;7.13;;
77775;SDS011;66965;43.328;6.668;2023-05-28T01:28:47;12.88;;;7.45;;
77775;SDS011;66965;43.328;6.668;2023-05-28T01:31:13;11.48;;;7.22;;
77775;SDS011;66965;43.328;6.668;2023-05-28T01:33:39;13.35;;;7.50;;
77775;SDS011;66965;43.328;6.668;2023-05-28T01:36:12;10.68;;;7.05;;
77775;SDS011;66965;43.328;6.668;2023-05-28T01:38:39;11.50;;;7.72;;
77775;SDS011;66965;43.328;6.668;2023-05-28T01:41:05;11.95;;;7.72;;
77775;SDS011;66965;43.328;6.668;2023-05-28T01:43:31;12.82;;;7.07;;
77775;SDS011;66965;43.328;6.668;2023-05-28T01:45:57;10.70;;;7.37;;
77775;SDS011;66965;43.328;6.668;2023-05-28T01:48:22;10.60;;;7.67;;
77775;SDS011;66965;43.328;6.668;2023-05-28T01:50:48;12.88;;;7.82;;
77775;SDS011;66965;43.328;6.668;2023-05-28T01:53:13;13.93;;;8.17;;
77775;SDS011;66965;43.328;6.668;2023-05-28T01:55:39;13.27;;;7.30;;
77775;SDS011;66965;43.328;6.668;2023-05-28T01:58:04;11.87;;;7.87;;
77775;SDS011;66965;43.328;6.668;2023-05-28T02:00:31;10.57;;;6.60;;
77775;SDS011;66965;43.328;6.668;2023-05-28T02:02:56;9.18;;;6.75;;
77775;SDS011;66965;43.328;6.668;2023-05-28T02:05:22;11.10;;;6.77;;
77775;SDS011;66965;43.328;6.668;2023-05-28T02:07:47;13.27;;;6.83;;
77775;SDS011;66965;43.328;6.668;2023-05-28T02:10:12;12.27;;;6.20;;
77775;SDS011;66965;43.328;6.668;2023-05-28T02:12:37;8.80;;;6.00;;
77775;SDS011;66965;43.328;6.668;2023-05-28T02:15:03;9.30;;;6.60;;
77775;SDS011;66965;43.328;6.668;2023-05-28T02:17:28;11.52;;;7.35;;
77775;SDS011;66965;43.328;6.668;2023-05-28T02:19:54;9.20;;;6.50;;
77775;SDS011;66965;43.328;6.668;2023-05-28T02:22:19;9.17;;;5.80;;
77775;SDS011;66965;43.328;6.668;2023-05-28T02:24:44;9.20;;;5.73;;
77775;SDS011;66965;43.328;6.668;2023-05-28T02:27:11;8.98;;;5.97;;
77775;SDS011;66965;43.328;6.668;2023-05-28T02:29:37;9.57;;;5.93;;
77775;SDS011;66965;43.328;6.668;2023-05-28T02:32:03;10.27;;;6.15;;
77775;SDS011;66965;43.328;6.668;2023-05-28T02:34:28;11.82;;;6.35;;
77775;SDS011;66965;43.328;6.668;2023-05-28T02:36:54;9.33;;;5.77;;
77775;SDS011;66965;43.328;6.668;2023-05-28T02:39:20;10.88;;;6.75;;
77775;SDS011;66965;43.328;6.668;2023-05-28T02:41:46;8.57;;;6.03;;
77775;SDS011;66965;43.328;6.668;2023-05-28T02:44:11;8.67;;;5.93;;
77775;SDS011;66965;43.328;6.668;2023-05-28T02:46:36;10.50;;;6.13;;
77775;SDS011;66965;43.328;6.668;2023-05-28T02:49:02;8.97;;;6.13;;
77775;SDS011;66965;43.328;6.668;2023-05-28T02:51:27;11.98;;;7.00;;
77775;SDS011;66965;43.328;6.668;2023-05-28T02:53:52;11.10;;;7.40;;
77775;SDS011;66965;43.328;6.668;2023-05-28T02:56:18;11.00;;;7.13;;
77775;SDS011;66965;43.328;6.668;2023-05-28T02:58:43;10.17;;;8.63;;
77775;SDS011;66965;43.328;6.668;2023-05-28T03:01:08;11.38;;;7.03;;
77775;SDS011;66965;43.328;6.668;2023-05-28T03:03:33;10.07;;;7.30;;
77775;SDS011;66965;43.328;6.668;2023-05-28T03:05:59;9.97;;;7.03;;
77775;SDS011;66965;43.328;6.668;2023-05-28T03:08:24;10.20;;;7.10;;
77775;SDS011;66965;43.328;6.668;2023-05-28T03:10:49;11.67;;;7.17;;
77775;SDS011;66965;43.328;6.668;2023-05-28T03:13:15;10.67;;;7.73;;
77775;SDS011;66965;43.328;6.668;2023-05-28T03:15:40;11.73;;;7.57;;
77775;SDS011;66965;43.328;6.668;2023-05-28T03:18:05;14.37;;;7.27;;
77775;SDS011;66965;43.328;6.668;2023-05-28T03:20:30;12.80;;;7.73;;
77775;SDS011;66965;43.328;6.668;2023-05-28T03:22:56;10.93;;;7.30;;
77775;SDS011;66965;43.328;6.668;2023-05-28T03:25:22;12.27;;;7.82;;
77775;SDS011;66965;43.328;6.668;2023-05-28T03:27:48;11.98;;;6.78;;
77775;SDS011;66965;43.328;6.668;2023-05-28T03:30:13;10.60;;;6.93;;
77775;SDS011;66965;43.328;6.668;2023-05-28T03:32:39;10.23;;;7.18;;
77775;SDS011;66965;43.328;6.668;2023-05-28T03:35:05;11.15;;;7.03;;
77775;SDS011;66965;43.328;6.668;2023-05-28T03:37:31;13.95;;;7.70;;
77775;SDS011;66965;43.328;6.668;2023-05-28T03:39:56;10.50;;;7.07;;
77775;SDS011;66965;43.328;6.668;2023-05-28T03:42:21;12.67;;;7.63;;
77775;SDS011;66965;43.328;6.668;2023-05-28T03:44:46;10.83;;;7.37;;
77775;SDS011;66965;43.328;6.668;2023-05-28T03:47:12;12.70;;;8.00;;
77775;SDS011;66965;43.328;6.668;2023-05-28T03:49:37;11.02;;;6.82;;
77775;SDS011;66965;43.328;6.668;2023-05-28T03:52:02;11.23;;;7.75;;
77775;SDS011;66965;43.328;6.668;2023-05-28T03:54:28;14.27;;;8.17;;
77775;SDS011;66965;43.328;6.668;2023-05-28T03:56:53;11.60;;;7.40;;
77775;SDS011;66965;43.328;6.668;2023-05-28T03:59:18;13.63;;;8.33;;
77775;SDS011;66965;43.328;6.668;2023-05-28T04:01:43;12.70;;;7.90;;
77775;SDS011;66965;43.328;6.668;2023-05-28T04:06:35;12.45;;;8.05;;
77775;SDS011;66965;43.328;6.668;2023-05-28T04:09:01;13.07;;;7.80;;
77775;SDS011;66965;43.328;6.668;2023-05-28T04:11:26;12.85;;;7.35;;
77775;SDS011;66965;43.328;6.668;2023-05-28T04:13:55;10.90;;;7.05;;
77775;SDS011;66965;43.328;6.668;2023-05-28T04:16:20;9.63;;;6.15;;
77775;SDS011;66965;43.328;6.668;2023-05-28T04:18:48;11.63;;;6.88;;
77775;SDS011;66965;43.328;6.668;2023-05-28T04:21:13;9.52;;;6.32;;
77775;SDS011;66965;43.328;6.668;2023-05-28T04:23:38;11.13;;;5.90;;
77775;SDS011;66965;43.328;6.668;2023-05-28T04:26:03;10.80;;;6.40;;
77775;SDS011;66965;43.328;6.668;2023-05-28T04:28:31;9.70;;;6.70;;
77775;SDS011;66965;43.328;6.668;2023-05-28T04:30:57;12.35;;;7.07;;
77775;SDS011;66965;43.328;6.668;2023-05-28T04:33:26;9.82;;;6.05;;
77775;SDS011;66965;43.328;6.668;2023-05-28T04:35:53;11.32;;;6.85;;
77775;SDS011;66965;43.328;6.668;2023-05-28T04:38:19;9.18;;;6.50;;
77775;SDS011;66965;43.328;6.668;2023-05-28T04:40:45;9.82;;;5.95;;
77775;SDS011;66965;43.328;6.668;2023-05-28T04:43:10;11.13;;;8.07;;
77775;SDS011;66965;43.328;6.668;2023-05-28T04:45:36;8.48;;;5.88;;
77775;SDS011;66965;43.328;6.668;2023-05-28T04:48:02;10.57;;;6.30;;
77775;SDS011;66965;43.328;6.668;2023-05-28T04:50:29;9.10;;;5.65;;
77775;SDS011;66965;43.328;6.668;2023-05-28T04:52:55;11.00;;;6.25;;
77775;SDS011;66965;43.328;6.668;2023-05-28T04:55:20;8.73;;;6.57;;
77775;SDS011;66965;43.328;6.668;2023-05-28T04:57:47;10.75;;;6.55;;
77775;SDS011;66965;43.328;6.668;2023-05-28T05:00:12;14.20;;;7.15;;
77775;SDS011;66965;43.328;6.668;2023-05-28T05:02:38;9.98;;;5.85;;
77775;SDS011;66965;43.328;6.668;2023-05-28T05:05:06;10.15;;;6.60;;
77775;SDS011;66965;43.328;6.668;2023-05-28T05:07:34;11.85;;;6.82;;
77775;SDS011;66965;43.328;6.668;2023-05-28T05:09:59;10.93;;;6.18;;
77775;SDS011;66965;43.328;6.668;2023-05-28T05:12:25;11.35;;;6.97;;
77775;SDS011;66965;43.328;6.668;2023-05-28T05:14:50;9.90;;;7.30;;
77775;SDS011;66965;43.328;6.668;2023-05-28T05:17:15;10.67;;;7.20;;
77775;SDS011;66965;43.328;6.668;2023-05-28T05:19:40;11.97;;;7.37;;
77775;SDS011;66965;43.328;6.668;2023-05-28T05:22:06;13.15;;;5.97;;
77775;SDS011;66965;43.328;6.668;2023-05-28T05:24:31;12.10;;;7.07;;
77775;SDS011;66965;43.328;6.668;2023-05-28T05:26:57;9.23;;;6.77;;
77775;SDS011;66965;43.328;6.668;2023-05-28T05:29:22;11.07;;;6.77;;
77775;SDS011;66965;43.328;6.668;2023-05-28T05:31:47;11.67;;;6.37;;
77775;SDS011;66965;43.328;6.668;2023-05-28T05:34:12;12.20;;;6.13;;
77775;SDS011;66965;43.328;6.668;2023-05-28T05:36:38;9.30;;;6.47;;
77775;SDS011;66965;43.328;6.668;2023-05-28T05:39:04;10.13;;;6.45;;
77775;SDS011;66965;43.328;6.668;2023-05-28T05:41:29;9.38;;;6.32;;
77775;SDS011;66965;43.328;6.668;2023-05-28T05:43:54;9.77;;;6.70;;
77775;SDS011;66965;43.328;6.668;2023-05-28T05:46:19;10.13;;;6.23;;
77775;SDS011;66965;43.328;6.668;2023-05-28T05:48:45;10.07;;;6.30;;
77775;SDS011;66965;43.328;6.668;2023-05-28T05:51:10;9.90;;;6.83;;
77775;SDS011;66965;43.328;6.668;2023-05-28T05:53:41;9.32;;;6.18;;
77775;SDS011;66965;43.328;6.668;2023-05-28T05:56:07;9.67;;;6.53;;
77775;SDS011;66965;43.328;6.668;2023-05-28T05:58:33;9.75;;;6.43;;
77775;SDS011;66965;43.328;6.668;2023-05-28T06:03:24;10.40;;;6.60;;
77775;SDS011;66965;43.328;6.668;2023-05-28T06:05:49;10.17;;;6.30;;
77775;SDS011;66965;43.328;6.668;2023-05-28T06:08:15;10.02;;;6.78;;
77775;SDS011;66965;43.328;6.668;2023-05-28T06:10:40;8.10;;;6.00;;
77775;SDS011;66965;43.328;6.668;2023-05-28T06:13:05;13.37;;;7.00;;
77775;SDS011;66965;43.328;6.668;2023-05-28T06:15:31;7.82;;;5.60;;
77775;SDS011;66965;43.328;6.668;2023-05-28T06:17:57;10.93;;;6.05;;
77775;SDS011;66965;43.328;6.668;2023-05-28T06:20:23;10.18;;;6.00;;
77775;SDS011;66965;43.328;6.668;2023-05-28T06:22:48;8.17;;;5.90;;
77775;SDS011;66965;43.328;6.668;2023-05-28T06:25:13;8.27;;;4.97;;
77775;SDS011;66965;43.328;6.668;2023-05-28T06:27:39;8.68;;;6.20;;
77775;SDS011;66965;43.328;6.668;2023-05-28T06:30:05;10.48;;;5.40;;
77775;SDS011;66965;43.328;6.668;2023-05-28T06:32:31;8.88;;;5.68;;
77775;SDS011;66965;43.328;6.668;2023-05-28T06:34:56;8.83;;;5.93;;
77775;SDS011;66965;43.328;6.668;2023-05-28T06:37:22;10.23;;;5.63;;
77775;SDS011;66965;43.328;6.668;2023-05-28T06:39:47;7.77;;;5.17;;
77775;SDS011;66965;43.328;6.668;2023-05-28T06:42:12;7.83;;;5.27;;
77775;SDS011;66965;43.328;6.668;2023-05-28T06:44:38;8.68;;;5.88;;
77775;SDS011;66965;43.328;6.668;2023-05-28T06:47:03;10.23;;;5.33;;
77775;SDS011;66965;43.328;6.668;2023-05-28T06:49:28;8.85;;;5.78;;
77775;SDS011;66965;43.328;6.668;2023-05-28T06:51:54;9.60;;;5.27;;
77775;SDS011;66965;43.328;6.668;2023-05-28T06:54:19;8.57;;;5.10;;
77775;SDS011;66965;43.328;6.668;2023-05-28T06:56:44;8.18;;;5.25;;
77775;SDS011;66965;43.328;6.668;2023-05-28T06:59:10;9.80;;;6.50;;
77775;SDS011;66965;43.328;6.668;2023-05-28T07:01:35;10.83;;;5.27;;
77775;SDS011;66965;43.328;6.668;2023-05-28T07:04:01;8.85;;;4.90;;
77775;SDS011;66965;43.328;6.668;2023-05-28T07:06:26;8.52;;;4.55;;
77775;SDS011;66965;43.328;6.668;2023-05-28T07:08:52;8.80;;;5.37;;
77775;SDS011;66965;43.328;6.668;2023-05-28T07:11:17;7.70;;;5.25;;
77775;SDS011;66965;43.328;6.668;2023-05-28T07:13:42;10.17;;;4.87;;
77775;SDS011;66965;43.328;6.668;2023-05-28T07:16:08;8.23;;;5.20;;
77775;SDS011;66965;43.328;6.668;2023-05-28T07:18:33;7.57;;;5.00;;
77775;SDS011;66965;43.328;6.668;2023-05-28T07:20:58;7.45;;;4.60;;
77775;SDS011;66965;43.328;6.668;2023-05-28T07:23:24;10.93;;;4.97;;
77775;SDS011;66965;43.328;6.668;2023-05-28T07:25:49;7.90;;;4.07;;
77775;SDS011;66965;43.328;6.668;2023-05-28T07:28:14;9.95;;;4.82;;
77775;SDS011;66965;43.328;6.668;2023-05-28T07:30:43;8.47;;;4.70;;
77775;SDS011;66965;43.328;6.668;2023-05-28T07:33:08;9.60;;;5.47;;
77775;SDS011;66965;43.328;6.668;2023-05-28T07:35:33;10.73;;;5.47;;
77775;SDS011;66965;43.328;6.668;2023-05-28T07:37:58;9.97;;;5.13;;
77775;SDS011;66965;43.328;6.668;2023-05-28T07:40:24;8.88;;;5.40;;
77775;SDS011;66965;43.328;6.668;2023-05-28T07:42:49;9.83;;;5.37;;
77775;SDS011;66965;43.328;6.668;2023-05-28T07:45:15;8.97;;;5.23;;
77775;SDS011;66965;43.328;6.668;2023-05-28T07:47:40;8.07;;;5.68;;
77775;SDS011;66965;43.328;6.668;2023-05-28T07:50:06;9.33;;;5.33;;
77775;SDS011;66965;43.328;6.668;2023-05-28T07:52:31;9.02;;;5.95;;
77775;SDS011;66965;43.328;6.668;2023-05-28T07:54:57;8.30;;;4.90;;
77775;SDS011;66965;43.328;6.668;2023-05-28T07:57:23;9.15;;;4.82;;
77775;SDS011;66965;43.328;6.668;2023-05-28T08:02:14;8.55;;;5.40;;
77775;SDS011;66965;43.328;6.668;2023-05-28T08:04:39;9.47;;;5.07;;
77775;SDS011;66965;43.328;6.668;2023-05-28T08:07:04;13.17;;;6.17;;
77775;SDS011;66965;43.328;6.668;2023-05-28T08:11:56;8.05;;;5.68;;
77775;SDS011;66965;43.328;6.668;2023-05-28T08:16:46;8.43;;;6.32;;
77775;SDS011;66965;43.328;6.668;2023-05-28T08:19:11;11.17;;;5.30;;
77775;SDS011;66965;43.328;6.668;2023-05-28T08:21:36;8.20;;;5.43;;
77775;SDS011;66965;43.328;6.668;2023-05-28T08:24:02;8.97;;;5.27;;
77775;SDS011;66965;43.328;6.668;2023-05-28T08:28:52;11.10;;;6.27;;
77775;SDS011;66965;43.328;6.668;2023-05-28T08:33:43;10.57;;;5.60;;
77775;SDS011;66965;43.328;6.668;2023-05-28T08:38:33;8.97;;;5.43;;
77775;SDS011;66965;43.328;6.668;2023-05-28T08:43:24;7.80;;;4.53;;
77775;SDS011;66965;43.328;6.668;2023-05-28T08:45:52;8.23;;;4.85;;
77775;SDS011;66965;43.328;6.668;2023-05-28T08:48:17;9.77;;;5.25;;
77775;SDS011;66965;43.328;6.668;2023-05-28T08:50:45;7.63;;;4.90;;
77775;SDS011;66965;43.328;6.668;2023-05-28T08:53:13;10.18;;;5.50;;
77775;SDS011;66965;43.328;6.668;2023-05-28T08:55:39;8.30;;;5.22;;
77775;SDS011;66965;43.328;6.668;2023-05-28T08:58:04;7.20;;;4.43;;
77775;SDS011;66965;43.328;6.668;2023-05-28T09:00:30;7.95;;;5.15;;
77775;SDS011;66965;43.328;6.668;2023-05-28T09:02:56;9.73;;;5.28;;
77775;SDS011;66965;43.328;6.668;2023-05-28T09:07:47;7.85;;;5.13;;
77775;SDS011;66965;43.328;6.668;2023-05-28T09:10:12;8.20;;;5.07;;
77775;SDS011;66965;43.328;6.668;2023-05-28T09:12:38;7.57;;;5.47;;
77775;SDS011;66965;43.328;6.668;2023-05-28T09:15:06;7.20;;;4.97;;
77775;SDS011;66965;43.328;6.668;2023-05-28T09:17:35;8.48;;;4.70;;
77775;SDS011;66965;43.328;6.668;2023-05-28T09:20:01;10.75;;;5.40;;
77775;SDS011;66965;43.328;6.668;2023-05-28T09:22:35;7.35;;;4.72;;
77775;SDS011;66965;43.328;6.668;2023-05-28T09:25:00;8.00;;;5.00;;
77775;SDS011;66965;43.328;6.668;2023-05-28T09:27:26;9.20;;;5.70;;
77775;SDS011;66965;43.328;6.668;2023-05-28T09:29:52;11.80;;;4.38;;
77775;SDS011;66965;43.328;6.668;2023-05-28T09:32:18;7.53;;;4.57;;
77775;SDS011;66965;43.328;6.668;2023-05-28T09:34:48;8.40;;;4.55;;
77775;SDS011;66965;43.328;6.668;2023-05-28T09:37:14;8.63;;;4.00;;
77775;SDS011;66965;43.328;6.668;2023-05-28T09:39:40;9.30;;;4.13;;
77775;SDS011;66965;43.328;6.668;2023-05-28T09:42:05;8.60;;;4.40;;
77775;SDS011;66965;43.328;6.668;2023-05-28T09:44:40;8.60;;;4.65;;
77775;SDS011;66965;43.328;6.668;2023-05-28T09:47:14;9.18;;;4.30;;
77775;SDS011;66965;43.328;6.668;2023-05-28T09:49:41;9.38;;;4.78;;
77775;SDS011;66965;43.328;6.668;2023-05-28T09:52:07;8.63;;;4.35;;
77775;SDS011;66965;43.328;6.668;2023-05-28T09:54:33;10.48;;;3.83;;
77775;SDS011;66965;43.328;6.668;2023-05-28T09:57:00;10.80;;;4.40;;
77775;SDS011;66965;43.328;6.668;2023-05-28T09:59:28;8.98;;;4.50;;
77775;SDS011;66965;43.328;6.668;2023-05-28T10:01:56;11.63;;;4.50;;
77775;SDS011;66965;43.328;6.668;2023-05-28T10:04:21;8.07;;;3.78;;
77775;SDS011;66965;43.328;6.668;2023-05-28T10:06:48;9.80;;;3.90;;
77775;SDS011;66965;43.328;6.668;2023-05-28T10:09:15;8.45;;;3.78;;
77775;SDS011;66965;43.328;6.668;2023-05-28T10:11:44;8.77;;;3.53;;
77775;SDS011;66965;43.328;6.668;2023-05-28T10:14:11;9.35;;;3.55;;
77775;SDS011;66965;43.328;6.668;2023-05-28T10:16:37;7.40;;;3.50;;
77775;SDS011;66965;43.328;6.668;2023-05-28T10:19:02;8.67;;;3.70;;
77775;SDS011;66965;43.328;6.668;2023-05-28T10:21:27;7.25;;;3.67;;
77775;SDS011;66965;43.328;6.668;2023-05-28T10:23:53;6.25;;;3.03;;
77775;SDS011;66965;43.328;6.668;2023-05-28T10:26:20;7.72;;;3.00;;
77775;SDS011;66965;43.328;6.668;2023-05-28T10:28:52;8.18;;;3.03;;
77775;SDS011;66965;43.328;6.668;2023-05-28T10:33:43;6.38;;;3.30;;
77775;SDS011;66965;43.328;6.668;2023-05-28T10:36:12;6.10;;;2.53;;
77775;SDS011;66965;43.328;6.668;2023-05-28T10:38:41;8.85;;;3.75;;
77775;SDS011;66965;43.328;6.668;2023-05-28T10:41:07;7.05;;;3.15;;
77775;SDS011;66965;43.328;6.668;2023-05-28T10:46:10;8.65;;;2.83;;
77775;SDS011;66965;43.328;6.668;2023-05-28T10:48:39;6.30;;;2.80;;
77775;SDS011;66965;43.328;6.668;2023-05-28T10:51:05;6.88;;;2.55;;
77775;SDS011;66965;43.328;6.668;2023-05-28T10:53:30;8.20;;;2.78;;
77775;SDS011;66965;43.328;6.668;2023-05-28T10:55:56;7.55;;;2.70;;
77775;SDS011;66965;43.328;6.668;2023-05-28T11:00:50;5.20;;;2.75;;
77775;SDS011;66965;43.328;6.668;2023-05-28T11:03:15;9.13;;;3.00;;
77775;SDS011;66965;43.328;6.668;2023-05-28T11:05:41;6.63;;;2.67;;
77775;SDS011;66965;43.328;6.668;2023-05-28T11:08:06;5.95;;;2.65;;
77775;SDS011;66965;43.328;6.668;2023-05-28T11:10:33;9.93;;;3.42;;
77775;SDS011;66965;43.328;6.668;2023-05-28T11:12:58;9.77;;;3.53;;
77775;SDS011;66965;43.328;6.668;2023-05-28T11:15:24;6.47;;;3.33;;
77775;SDS011;66965;43.328;6.668;2023-05-28T11:17:49;6.85;;;3.10;;
77775;SDS011;66965;43.328;6.668;2023-05-28T11:20:21;8.90;;;3.22;;
77775;SDS011;66965;43.328;6.668;2023-05-28T11:22:49;7.80;;;3.22;;
77775;SDS011;66965;43.328;6.668;2023-05-28T11:25:15;11.32;;;3.75;;
77775;SDS011;66965;43.328;6.668;2023-05-28T11:27:40;9.43;;;3.20;;
77775;SDS011;66965;43.328;6.668;2023-05-28T11:30:10;8.75;;;2.78;;
77775;SDS011;66965;43.328;6.668;2023-05-28T11:32:38;6.90;;;2.85;;
77775;SDS011;66965;43.328;6.668;2023-05-28T11:35:04;8.27;;;2.78;;
77775;SDS011;66965;43.328;6.668;2023-05-28T11:37:34;10.73;;;2.88;;
77775;SDS011;66965;43.328;6.668;2023-05-28T11:39:59;7.65;;;3.33;;
77775;SDS011;66965;43.328;6.668;2023-05-28T11:42:26;12.38;;;3.50;;
77775;SDS011;66965;43.328;6.668;2023-05-28T11:44:51;8.07;;;3.10;;
77775;SDS011;66965;43.328;6.668;2023-05-28T11:47:17;7.47;;;3.22;;
77775;SDS011;66965;43.328;6.668;2023-05-28T11:49:43;7.20;;;3.00;;
77775;SDS011;66965;43.328;6.668;2023-05-28T11:52:15;8.32;;;2.90;;
77775;SDS011;66965;43.328;6.668;2023-05-28T11:54:40;6.82;;;2.78;;
77775;SDS011;66965;43.328;6.668;2023-05-28T11:57:07;8.23;;;3.17;;
77775;SDS011;66965;43.328;6.668;2023-05-28T11:59:32;7.85;;;2.95;;
77775;SDS011;66965;43.328;6.668;2023-05-28T12:02:10;7.90;;;2.90;;
77775;SDS011;66965;43.328;6.668;2023-05-28T12:04:36;8.55;;;3.17;;
77775;SDS011;66965;43.328;6.668;2023-05-28T12:07:02;10.43;;;3.45;;
77775;SDS011;66965;43.328;6.668;2023-05-28T12:09:27;4.83;;;2.87;;
77775;SDS011;66965;43.328;6.668;2023-05-28T12:14:29;14.48;;;3.75;;
77775;SDS011;66965;43.328;6.668;2023-05-28T12:16:54;8.60;;;2.90;;
77775;SDS011;66965;43.328;6.668;2023-05-28T12:19:19;9.03;;;3.37;;
77775;SDS011;66965;43.328;6.668;2023-05-28T12:21:44;7.63;;;2.90;;
77775;SDS011;66965;43.328;6.668;2023-05-28T12:24:13;8.68;;;2.97;;
77775;SDS011;66965;43.328;6.668;2023-05-28T12:26:39;7.10;;;2.60;;
77775;SDS011;66965;43.328;6.668;2023-05-28T12:29:04;7.97;;;3.00;;
77775;SDS011;66965;43.328;6.668;2023-05-28T12:31:30;8.07;;;3.13;;
77775;SDS011;66965;43.328;6.668;2023-05-28T12:33:56;6.80;;;2.80;;
77775;SDS011;66965;43.328;6.668;2023-05-28T12:36:21;7.80;;;2.90;;
77775;SDS011;66965;43.328;6.668;2023-05-28T12:38:46;9.10;;;3.80;;
77775;SDS011;66965;43.328;6.668;2023-05-28T12:41:12;8.83;;;2.80;;
77775;SDS011;66965;43.328;6.668;2023-05-28T12:43:37;6.63;;;3.27;;
77775;SDS011;66965;43.328;6.668;2023-05-28T12:46:02;10.47;;;3.47;;
77775;SDS011;66965;43.328;6.668;2023-05-28T12:48:27;7.97;;;2.67;;
77775;SDS011;66965;43.328;6.668;2023-05-28T12:50:53;7.43;;;2.90;;
77775;SDS011;66965;43.328;6.668;2023-05-28T12:53:18;8.40;;;3.70;;
77775;SDS011;66965;43.328;6.668;2023-05-28T12:55:43;6.27;;;2.80;;
77775;SDS011;66965;43.328;6.668;2023-05-28T12:58:09;6.20;;;2.87;;
77775;SDS011;66965;43.328;6.668;2023-05-28T13:00:34;8.33;;;3.40;;
77775;SDS011;66965;43.328;6.668;2023-05-28T13:03:00;7.40;;;2.80;;
77775;SDS011;66965;43.328;6.668;2023-05-28T13:05:27;6.53;;;3.88;;
77775;SDS011;66965;43.328;6.668;2023-05-28T13:07:53;6.22;;;2.97;;
77775;SDS011;66965;43.328;6.668;2023-05-28T13:10:18;6.23;;;3.10;;
77775;SDS011;66965;43.328;6.668;2023-05-28T13:12:43;8.53;;;2.87;;
77775;SDS011;66965;43.328;6.668;2023-05-28T13:15:09;6.23;;;2.87;;
77775;SDS011;66965;43.328;6.668;2023-05-28T13:17:34;8.07;;;2.97;;
77775;SDS011;66965;43.328;6.668;2023-05-28T13:19:59;5.77;;;2.90;;
77775;SDS011;66965;43.328;6.668;2023-05-28T13:22:25;9.73;;;3.08;;
77775;SDS011;66965;43.328;6.668;2023-05-28T13:24:50;6.60;;;2.90;;
77775;SDS011;66965;43.328;6.668;2023-05-28T13:27:15;7.97;;;3.10;;
77775;SDS011;66965;43.328;6.668;2023-05-28T13:29:41;6.85;;;3.20;;
77775;SDS011;66965;43.328;6.668;2023-05-28T13:32:06;8.10;;;2.78;;
77775;SDS011;66965;43.328;6.668;2023-05-28T13:34:32;5.57;;;3.00;;
77775;SDS011;66965;43.328;6.668;2023-05-28T13:36:57;7.07;;;2.93;;
77775;SDS011;66965;43.328;6.668;2023-05-28T13:39:22;6.53;;;3.10;;
77775;SDS011;66965;43.328;6.668;2023-05-28T13:41:48;8.53;;;3.07;;
77775;SDS011;66965;43.328;6.668;2023-05-28T13:44:13;7.38;;;3.08;;
77775;SDS011;66965;43.328;6.668;2023-05-28T13:46:39;6.07;;;3.20;;
77775;SDS011;66965;43.328;6.668;2023-05-28T13:49:04;7.97;;;3.90;;
77775;SDS011;66965;43.328;6.668;2023-05-28T13:51:29;6.57;;;3.30;;
77775;SDS011;66965;43.328;6.668;2023-05-28T13:53:55;8.48;;;3.63;;
77775;SDS011;66965;43.328;6.668;2023-05-28T13:56:21;6.23;;;3.07;;
77775;SDS011;66965;43.328;6.668;2023-05-28T13:58:46;6.43;;;3.60;;
77775;SDS011;66965;43.328;6.668;2023-05-28T14:01:11;7.20;;;3.13;;
77775;SDS011;66965;43.328;6.668;2023-05-28T14:03:36;6.87;;;3.57;;
77775;SDS011;66965;43.328;6.668;2023-05-28T14:06:02;7.25;;;4.05;;
77775;SDS011;66965;43.328;6.668;2023-05-28T14:08:28;9.57;;;3.70;;
77775;SDS011;66965;43.328;6.668;2023-05-28T14:10:54;8.70;;;3.50;;
77775;SDS011;66965;43.328;6.668;2023-05-28T14:13:19;6.50;;;3.77;;
77775;SDS011;66965;43.328;6.668;2023-05-28T14:15:44;5.93;;;3.70;;
77775;SDS011;66965;43.328;6.668;2023-05-28T14:18:10;6.03;;;3.00;;
77775;SDS011;66965;43.328;6.668;2023-05-28T14:20:36;6.80;;;3.13;;
77775;SDS011;66965;43.328;6.668;2023-05-28T14:23:04;11.20;;;3.77;;
77775;SDS011;66965;43.328;6.668;2023-05-28T14:25:29;8.32;;;3.33;;
77775;SDS011;66965;43.328;6.668;2023-05-28T14:27:55;7.32;;;3.58;;
77775;SDS011;66965;43.328;6.668;2023-05-28T14:30:21;6.80;;;3.53;;
77775;SDS011;66965;43.328;6.668;2023-05-28T14:32:47;6.03;;;3.20;;
77775;SDS011;66965;43.328;6.668;2023-05-28T14:35:12;18.07;;;4.17;;
77775;SDS011;66965;43.328;6.668;2023-05-28T14:37:37;6.80;;;3.50;;
77775;SDS011;66965;43.328;6.668;2023-05-28T14:40:03;6.57;;;3.97;;
77775;SDS011;66965;43.328;6.668;2023-05-28T14:42:29;9.50;;;4.25;;
77775;SDS011;66965;43.328;6.668;2023-05-28T14:44:55;8.52;;;3.85;;
77775;SDS011;66965;43.328;6.668;2023-05-28T14:47:20;8.40;;;4.28;;
77775;SDS011;66965;43.328;6.668;2023-05-28T14:49:45;10.93;;;3.90;;
77775;SDS011;66965;43.328;6.668;2023-05-28T14:52:21;6.67;;;3.57;;
77775;SDS011;66965;43.328;6.668;2023-05-28T14:54:48;7.95;;;4.22;;
77775;SDS011;66965;43.328;6.668;2023-05-28T14:57:13;8.03;;;3.80;;
77775;SDS011;66965;43.328;6.668;2023-05-28T14:59:39;8.23;;;4.60;;
77775;SDS011;66965;43.328;6.668;2023-05-28T15:02:04;9.47;;;4.40;;
77775;SDS011;66965;43.328;6.668;2023-05-28T15:04:29;6.22;;;4.00;;
77775;SDS011;66965;43.328;6.668;2023-05-28T15:06:55;8.43;;;3.97;;
77775;SDS011;66965;43.328;6.668;2023-05-28T15:09:20;17.63;;;4.73;;
77775;SDS011;66965;43.328;6.668;2023-05-28T15:11:46;8.32;;;4.05;;
77775;SDS011;66965;43.328;6.668;2023-05-28T15:14:11;7.87;;;3.90;;
77775;SDS011;66965;43.328;6.668;2023-05-28T15:16:36;11.10;;;4.97;;